createdAt,value
2022-10-01T00:02:10.872Z,8.67
2022-10-01T00:04:39.700Z,8.64
2022-10-01T00:07:11.118Z,8.60
2022-10-01T00:09:39.509Z,8.56
2022-10-01T00:12:07.989Z,8.53
2022-10-01T00:14:39.159Z,8.50
2022-10-01T00:17:07.693Z,8.48
2022-10-01T00:19:36.040Z,8.46
2022-10-01T00:22:04.347Z,8.43
2022-10-01T00:24:32.767Z,8.42
2022-10-01T00:27:01.058Z,8.40
2022-10-01T00:29:31.869Z,8.39
2022-10-01T00:32:00.461Z,8.37
2022-10-01T00:34:28.925Z,8.36
2022-10-01T00:36:57.243Z,8.36
2022-10-01T00:39:25.602Z,8.35
2022-10-01T00:41:54.689Z,8.33
2022-10-01T00:44:38.433Z,8.31
2022-10-01T00:47:31.704Z,8.29
2022-10-01T00:50:09.998Z,8.27
2022-10-01T00:52:41.830Z,8.24
2022-10-01T00:55:15.894Z,8.21
2022-10-01T00:57:45.601Z,8.18
2022-10-01T01:00:14.891Z,8.15
2022-10-01T01:02:43.792Z,8.13
2022-10-01T01:05:13.974Z,8.09
2022-10-01T01:07:48.545Z,8.05
2022-10-01T01:10:29.917Z,8.01
2022-10-01T01:13:11.939Z,7.95
2022-10-01T01:15:58.945Z,7.91
2022-10-01T01:19:00.798Z,7.87
2022-10-01T01:21:56.715Z,7.82
2022-10-01T01:24:46.544Z,7.78
2022-10-01T01:27:33.409Z,7.73
2022-10-01T01:30:08.649Z,7.70
2022-10-01T01:33:04.740Z,7.66
2022-10-01T01:35:44.866Z,7.62
2022-10-01T01:38:28.075Z,7.59
2022-10-01T01:41:02.202Z,7.56
2022-10-01T01:43:35.688Z,7.54
2022-10-01T01:46:08.882Z,7.51
2022-10-01T01:48:41.791Z,7.49
2022-10-01T01:51:34.184Z,7.47
2022-10-01T01:54:03.285Z,7.44
2022-10-01T01:56:32.320Z,7.41
2022-10-01T01:59:01.483Z,7.38
2022-10-01T02:01:44.258Z,7.35
2022-10-01T02:04:24.504Z,7.32
2022-10-01T02:07:11.156Z,7.28
2022-10-01T02:09:59.698Z,7.24
2022-10-01T02:13:01.596Z,7.22
2022-10-01T02:15:44.945Z,7.18
2022-10-01T02:18:47.807Z,7.15
2022-10-01T02:22:11.029Z,7.13
2022-10-01T02:24:50.907Z,7.09
2022-10-01T02:27:53.441Z,7.07
2022-10-01T02:30:22.099Z,7.06
2022-10-01T02:32:52.652Z,7.03
2022-10-01T02:35:22.028Z,6.99
2022-10-01T02:37:56.304Z,6.97
2022-10-01T02:40:28.329Z,6.96
2022-10-01T02:43:04.570Z,6.93
2022-10-01T02:45:37.885Z,6.93
2022-10-01T02:48:11.091Z,6.90
2022-10-01T02:50:57.194Z,6.89
2022-10-01T02:53:36.003Z,6.86
2022-10-01T02:56:07.092Z,6.83
2022-10-01T02:58:36.423Z,6.80
2022-10-01T03:01:05.409Z,6.77
2022-10-01T03:03:33.764Z,6.74
2022-10-01T03:06:02.094Z,6.70
2022-10-01T03:08:31.594Z,6.67
2022-10-01T03:11:01.098Z,6.66
2022-10-01T03:13:29.503Z,6.64
2022-10-01T03:15:57.863Z,6.62
2022-10-01T03:18:26.428Z,6.60
2022-10-01T03:20:54.773Z,6.58
2022-10-01T03:23:23.320Z,6.57
2022-10-01T03:25:51.692Z,6.55
2022-10-01T03:28:20.093Z,6.53
2022-10-01T03:30:48.521Z,6.50
2022-10-01T03:33:16.930Z,6.47
2022-10-01T03:35:45.215Z,6.45
2022-10-01T03:38:13.871Z,6.44
2022-10-01T03:40:42.198Z,6.42
2022-10-01T03:43:10.535Z,6.43
2022-10-01T03:45:39.578Z,6.42
2022-10-01T03:48:07.962Z,6.41
2022-10-01T03:50:36.744Z,6.41
2022-10-01T03:53:06.556Z,6.41
2022-10-01T03:55:34.881Z,6.40
2022-10-01T03:58:03.657Z,6.40
2022-10-01T04:00:31.951Z,6.40
2022-10-01T04:03:00.360Z,6.40
2022-10-01T04:05:29.002Z,6.42
2022-10-01T04:07:59.692Z,6.43
2022-10-01T04:10:28.089Z,6.44
2022-10-01T04:12:56.873Z,6.45
2022-10-01T04:15:25.662Z,6.44
2022-10-01T04:17:55.031Z,6.44
2022-10-01T04:20:23.593Z,6.44
2022-10-01T04:22:53.183Z,6.44
2022-10-01T04:25:21.655Z,6.42
2022-10-01T04:28:02.035Z,6.41
2022-10-01T04:30:35.067Z,6.40
2022-10-01T04:33:04.720Z,6.38
2022-10-01T04:35:34.086Z,6.36
2022-10-01T04:38:06.343Z,6.35
2022-10-01T04:40:36.750Z,6.31
2022-10-01T04:43:09.648Z,6.29
2022-10-01T04:45:38.442Z,6.27
2022-10-01T04:48:06.844Z,6.26
2022-10-01T04:50:35.185Z,6.25
2022-10-01T04:53:03.558Z,6.24
2022-10-01T04:55:31.922Z,6.23
2022-10-01T04:58:00.256Z,6.22
2022-10-01T05:00:30.049Z,6.23
2022-10-01T05:02:58.514Z,6.22
2022-10-01T05:05:29.168Z,6.23
2022-10-01T05:07:57.599Z,6.23
2022-10-01T05:10:26.291Z,6.24
2022-10-01T05:15:36.962Z,6.28
2022-10-01T05:18:05.287Z,6.28
2022-10-01T05:20:34.430Z,6.28
2022-10-01T05:23:02.709Z,6.29
2022-10-01T05:25:30.992Z,6.31
2022-10-01T05:28:05.997Z,6.34
2022-10-01T05:30:35.135Z,6.36
2022-10-01T05:33:05.052Z,6.39
2022-10-01T05:35:33.499Z,6.41
2022-10-01T05:38:03.068Z,6.45
2022-10-01T05:40:31.649Z,6.47
2022-10-01T05:43:00.434Z,6.51
2022-10-01T05:45:31.884Z,6.55
2022-10-01T05:48:03.652Z,6.59
2022-10-01T05:50:35.829Z,6.63
2022-10-01T05:53:04.392Z,6.69
2022-10-01T05:55:36.923Z,6.74
2022-10-01T05:58:11.370Z,6.81
2022-10-01T06:00:42.022Z,6.87
2022-10-01T06:03:15.294Z,6.94
2022-10-01T06:05:44.651Z,7.01
2022-10-01T06:08:13.240Z,7.08
2022-10-01T06:10:41.929Z,7.15
2022-10-01T06:13:10.568Z,7.22
2022-10-01T06:15:39.171Z,7.28
2022-10-01T06:18:10.474Z,7.35
2022-10-01T06:20:40.975Z,7.42
2022-10-01T06:23:12.584Z,7.48
2022-10-01T06:25:43.544Z,7.55
2022-10-01T06:28:14.898Z,7.64
2022-10-01T06:30:43.729Z,7.73
2022-10-01T06:33:15.535Z,7.83
2022-10-01T06:35:49.836Z,7.93
2022-10-01T06:38:21.318Z,8.03
2022-10-01T06:40:55.287Z,8.11
2022-10-01T06:43:25.547Z,8.19
2022-10-01T06:45:54.827Z,8.27
2022-10-01T06:48:23.674Z,8.35
2022-10-01T06:50:53.146Z,8.43
2022-10-01T06:53:21.540Z,8.51
2022-10-01T06:55:50.098Z,8.61
2022-10-01T06:58:27.651Z,8.71
2022-10-01T07:01:03.844Z,8.82
2022-10-01T07:03:32.354Z,8.91
2022-10-01T07:06:04.124Z,9.01
2022-10-01T07:08:33.490Z,9.12
2022-10-01T07:11:03.110Z,9.24
2022-10-01T07:13:31.827Z,9.36
2022-10-01T07:16:04.377Z,9.47
2022-10-01T07:18:33.305Z,9.60
2022-10-01T07:21:01.951Z,9.73
2022-10-01T07:23:30.455Z,9.86
2022-10-01T07:25:59.104Z,10.00
2022-10-01T07:28:28.300Z,10.14
2022-10-01T07:31:07.274Z,10.29
2022-10-01T07:33:35.965Z,10.45
2022-10-01T07:36:08.505Z,10.60
2022-10-01T07:38:36.935Z,10.76
2022-10-01T07:41:06.005Z,10.92
2022-10-01T07:43:36.458Z,11.09
2022-10-01T07:46:07.307Z,11.25
2022-10-01T07:48:35.973Z,11.41
2022-10-01T07:51:04.527Z,11.57
2022-10-01T07:53:32.874Z,11.70
2022-10-01T07:56:02.965Z,11.85
2022-10-01T07:58:31.427Z,12.00
2022-10-01T08:01:04.464Z,12.14
2022-10-01T08:03:32.832Z,12.29
2022-10-01T08:06:04.121Z,12.43
2022-10-01T08:08:33.523Z,12.59
2022-10-01T08:11:07.234Z,12.77
2022-10-01T08:13:36.013Z,12.99
2022-10-01T08:16:06.228Z,13.20
2022-10-01T08:18:35.131Z,13.39
2022-10-01T08:21:04.571Z,13.54
2022-10-01T08:23:33.903Z,13.64
2022-10-01T08:26:07.649Z,13.72
2022-10-01T08:28:36.180Z,13.82
2022-10-01T08:31:10.047Z,13.92
2022-10-01T08:33:38.824Z,14.01
2022-10-01T08:36:08.648Z,14.08
2022-10-01T08:38:40.728Z,14.14
2022-10-01T08:41:49.581Z,14.18
2022-10-01T08:44:28.223Z,14.22
2022-10-01T08:47:13.995Z,14.30
2022-10-01T08:49:56.348Z,14.42
2022-10-01T08:52:37.014Z,14.58
2022-10-01T08:55:21.285Z,14.81
2022-10-01T08:58:04.204Z,15.07
2022-10-01T09:00:38.852Z,15.32
2022-10-01T09:03:12.955Z,15.55
2022-10-01T09:05:59.624Z,15.76
2022-10-01T09:09:24.826Z,15.94
2022-10-01T09:12:31.509Z,16.09
2022-10-01T09:15:40.132Z,16.17
2022-10-01T09:18:46.915Z,16.25
2022-10-01T09:21:27.188Z,16.39
2022-10-01T09:24:10.332Z,16.48
2022-10-01T09:26:45.087Z,16.57
2022-10-01T09:29:23.052Z,16.64
2022-10-01T09:31:53.826Z,16.69
2022-10-01T09:34:40.106Z,16.71
2022-10-01T09:37:15.181Z,16.73
2022-10-01T09:40:00.612Z,16.75
2022-10-01T09:42:30.341Z,16.78
2022-10-01T09:44:59.328Z,16.82
2022-10-01T09:47:28.143Z,16.89
2022-10-01T09:50:00.313Z,16.94
2022-10-01T09:52:39.219Z,17.00
2022-10-01T09:55:46.079Z,17.08
2022-10-01T09:58:23.122Z,17.16
2022-10-01T10:00:53.741Z,17.19
2022-10-01T10:03:25.441Z,17.20
2022-10-01T10:05:55.029Z,17.20
2022-10-01T10:08:40.456Z,17.25
2022-10-01T10:11:10.562Z,17.30
2022-10-01T10:13:51.046Z,17.33
2022-10-01T10:16:35.330Z,17.35
2022-10-01T10:19:15.157Z,17.38
2022-10-01T10:21:53.209Z,17.45
2022-10-01T10:24:32.837Z,17.51
2022-10-01T10:27:06.996Z,17.56
2022-10-01T10:29:37.581Z,17.66
2022-10-01T10:32:27.656Z,17.75
2022-10-01T10:35:04.922Z,17.87
2022-10-01T10:37:38.460Z,17.97
2022-10-01T10:40:10.775Z,18.08
2022-10-01T10:42:48.011Z,18.19
2022-10-01T10:45:21.364Z,18.33
2022-10-01T10:47:52.938Z,18.57
2022-10-01T10:50:33.914Z,18.74
2022-10-01T10:53:24.350Z,18.92
2022-10-01T10:56:06.471Z,19.19
2022-10-01T10:58:42.502Z,19.38
2022-10-01T11:01:18.038Z,19.52
2022-10-01T11:03:57.697Z,19.77
2022-10-01T11:06:26.562Z,19.98
2022-10-01T11:09:07.386Z,20.06
2022-10-01T11:12:00.176Z,20.13
2022-10-01T11:15:08.077Z,20.07
2022-10-01T11:18:17.413Z,19.95
2022-10-01T11:21:04.223Z,19.76
2022-10-01T11:24:10.444Z,19.58
2022-10-01T11:26:58.699Z,19.43
2022-10-01T11:29:47.775Z,19.33
2022-10-01T11:32:19.726Z,19.23
2022-10-01T11:35:22.271Z,19.12
2022-10-01T11:38:06.711Z,19.07
2022-10-01T11:40:54.735Z,19.03
2022-10-01T11:43:41.202Z,18.93
2022-10-01T11:46:25.315Z,18.87
2022-10-01T11:49:46.663Z,18.82
2022-10-01T11:52:23.584Z,18.79
2022-10-01T11:55:21.504Z,18.78
2022-10-01T11:58:17.209Z,18.82
2022-10-01T12:01:15.309Z,18.89
2022-10-01T12:03:52.227Z,18.91
2022-10-01T12:06:33.722Z,18.97
2022-10-01T12:09:17.678Z,19.08
2022-10-01T12:11:54.092Z,19.22
2022-10-01T12:14:44.488Z,19.30
2022-10-01T12:17:25.873Z,19.33
2022-10-01T12:19:59.827Z,19.28
2022-10-01T12:22:41.090Z,19.27
2022-10-01T12:25:13.365Z,19.28
2022-10-01T12:28:24.094Z,19.33
2022-10-01T12:31:13.096Z,19.45
2022-10-01T12:33:59.696Z,19.61
2022-10-01T12:36:50.056Z,19.67
2022-10-01T12:39:43.163Z,19.60
2022-10-01T12:42:32.007Z,19.52
2022-10-01T12:45:00.216Z,19.51
2022-10-01T12:47:43.060Z,19.58
2022-10-01T12:50:47.285Z,19.61
2022-10-01T12:54:15.467Z,19.62
2022-10-01T12:57:00.520Z,19.67
2022-10-01T12:59:51.670Z,19.70
2022-10-01T13:02:57.363Z,19.72
2022-10-01T13:06:01.421Z,19.76
2022-10-01T13:09:03.443Z,19.79
2022-10-01T13:12:18.067Z,19.86
2022-10-01T13:14:47.613Z,19.84
2022-10-01T13:17:39.806Z,19.83
2022-10-01T13:20:29.104Z,19.76
2022-10-01T13:23:31.522Z,19.71
2022-10-01T13:26:27.346Z,19.67
2022-10-01T13:29:07.320Z,19.65
2022-10-01T13:31:53.082Z,19.69
2022-10-01T13:34:39.653Z,19.72
2022-10-01T13:37:16.510Z,19.70
2022-10-01T13:39:46.898Z,19.65
2022-10-01T13:42:29.895Z,19.57
2022-10-01T13:45:04.791Z,19.45
2022-10-01T13:47:41.247Z,19.32
2022-10-01T13:50:24.000Z,19.19
2022-10-01T13:53:25.474Z,19.04
2022-10-01T13:55:56.852Z,18.90
2022-10-01T13:58:45.929Z,18.74
2022-10-01T14:01:22.877Z,18.56
2022-10-01T14:04:05.220Z,18.42
2022-10-01T14:06:36.925Z,18.30
2022-10-01T14:09:13.496Z,18.19
2022-10-01T14:12:06.833Z,18.07
2022-10-01T14:14:56.642Z,17.93
2022-10-01T14:17:33.503Z,17.79
2022-10-01T14:20:03.037Z,17.68
2022-10-01T14:22:41.804Z,17.56
2022-10-01T14:25:23.189Z,17.46
2022-10-01T14:28:23.142Z,17.36
2022-10-01T14:31:45.542Z,17.22
2022-10-01T14:34:42.353Z,17.07
2022-10-01T14:37:17.463Z,16.95
2022-10-01T14:39:46.633Z,16.87
2022-10-01T14:42:18.578Z,16.78
2022-10-01T14:44:47.489Z,16.70
2022-10-01T14:47:22.754Z,16.64
2022-10-01T14:49:51.970Z,16.58
2022-10-01T14:52:28.271Z,16.51
2022-10-01T14:54:56.448Z,16.44
2022-10-01T14:57:39.559Z,16.37
2022-10-01T15:00:16.021Z,16.30
2022-10-01T15:03:15.606Z,16.22
2022-10-01T15:05:47.130Z,16.11
2022-10-01T15:08:41.330Z,16.02
2022-10-01T15:11:27.587Z,15.86
2022-10-01T15:14:06.397Z,15.49
2022-10-01T15:16:36.478Z,14.80
2022-10-01T15:19:15.834Z,14.22
2022-10-01T15:21:57.598Z,13.74
2022-10-01T15:24:49.395Z,13.34
2022-10-01T15:27:20.763Z,13.02
2022-10-01T15:29:56.922Z,12.77
2022-10-01T15:32:28.157Z,12.57
2022-10-01T15:35:01.411Z,12.42
2022-10-01T15:37:33.633Z,12.30
2022-10-01T15:40:06.011Z,12.21
2022-10-01T15:42:36.025Z,12.13
2022-10-01T15:45:07.251Z,12.06
2022-10-01T15:47:41.364Z,11.99
2022-10-01T15:50:09.546Z,11.91
2022-10-01T15:53:02.319Z,11.82
2022-10-01T15:55:43.908Z,11.70
2022-10-01T15:58:31.729Z,11.59
2022-10-01T16:01:06.618Z,11.48
2022-10-01T16:03:48.313Z,11.41
2022-10-01T16:06:29.592Z,11.35
2022-10-01T16:09:20.653Z,11.29
2022-10-01T16:11:53.562Z,11.21
2022-10-01T16:14:27.983Z,11.15
2022-10-01T16:17:18.060Z,11.09
2022-10-01T16:19:52.942Z,11.04
2022-10-01T16:22:29.119Z,10.98
2022-10-01T16:25:03.782Z,10.94
2022-10-01T16:27:50.608Z,10.90
2022-10-01T16:30:26.950Z,10.86
2022-10-01T16:32:59.311Z,10.82
2022-10-01T16:35:32.684Z,10.78
2022-10-01T16:38:01.529Z,10.75
2022-10-01T16:40:33.174Z,10.73
2022-10-01T16:43:03.204Z,10.70
2022-10-01T16:45:40.556Z,10.69
2022-10-01T16:48:19.685Z,10.67
2022-10-01T16:50:48.824Z,10.66
2022-10-01T16:53:18.915Z,10.65
2022-10-01T16:55:47.392Z,10.64
2022-10-01T16:58:16.022Z,10.62
2022-10-01T17:00:44.576Z,10.61
2022-10-01T17:03:18.370Z,10.60
2022-10-01T17:05:47.637Z,10.60
2022-10-01T17:08:16.484Z,10.60
2022-10-01T17:10:48.485Z,10.59
2022-10-01T17:13:17.052Z,10.59
2022-10-01T17:15:47.602Z,10.59
2022-10-01T17:18:16.441Z,10.59
2022-10-01T17:20:46.803Z,10.58
2022-10-01T17:23:19.388Z,10.58
2022-10-01T17:25:48.091Z,10.58
2022-10-01T17:28:20.403Z,10.59
2022-10-01T17:30:49.841Z,10.59
2022-10-01T17:33:19.892Z,10.59
2022-10-01T17:35:55.645Z,10.60
2022-10-01T17:38:24.051Z,10.60
2022-10-01T17:40:56.419Z,10.60
2022-10-01T17:43:25.940Z,10.61
2022-10-01T17:46:01.336Z,10.61
2022-10-01T17:48:30.287Z,10.61
2022-10-01T17:51:11.117Z,10.62
2022-10-01T17:53:42.590Z,10.62
2022-10-01T17:56:17.737Z,10.61
2022-10-01T17:58:46.557Z,10.61
2022-10-01T18:01:20.348Z,10.61
2022-10-01T18:03:57.737Z,10.61
2022-10-01T18:06:27.634Z,10.62
2022-10-01T18:08:56.863Z,10.63
2022-10-01T18:11:28.959Z,10.64
2022-10-01T18:13:58.598Z,10.64
2022-10-01T18:16:27.648Z,10.64
2022-10-01T18:21:51.149Z,10.65
2022-10-01T18:24:19.883Z,10.65
2022-10-01T18:26:48.327Z,10.65
2022-10-01T18:29:24.788Z,10.67
2022-10-01T18:32:12.953Z,10.67
2022-10-01T18:35:00.006Z,10.67
2022-10-01T18:37:40.201Z,10.68
2022-10-01T18:40:36.807Z,10.69
2022-10-01T18:43:11.263Z,10.70
2022-10-01T18:46:28.920Z,10.71
2022-10-01T18:49:19.074Z,10.73
2022-10-01T18:52:21.132Z,10.73
2022-10-01T18:55:25.343Z,10.75
2022-10-01T18:58:20.977Z,10.75
2022-10-01T19:01:16.981Z,10.76
2022-10-01T19:04:17.534Z,10.77
2022-10-01T19:07:12.983Z,10.77
2022-10-01T19:10:01.838Z,10.79
2022-10-01T19:12:48.592Z,10.80
2022-10-01T19:15:36.986Z,10.80
2022-10-01T19:18:36.866Z,10.81
2022-10-01T19:21:39.936Z,10.82
2022-10-01T19:24:31.416Z,10.83
2022-10-01T19:27:39.116Z,10.84
2022-10-01T19:30:17.867Z,10.86
2022-10-01T19:32:56.549Z,10.87
2022-10-01T19:35:32.289Z,10.88
2022-10-01T19:38:11.248Z,10.91
2022-10-01T19:40:48.440Z,10.91
2022-10-01T19:43:40.613Z,10.92
2022-10-01T19:46:29.503Z,10.90
2022-10-01T19:49:09.929Z,10.89
2022-10-01T19:51:57.185Z,10.86
2022-10-01T19:54:38.856Z,10.85
2022-10-01T19:57:31.771Z,10.85
2022-10-01T20:00:09.741Z,10.85
2022-10-01T20:03:19.011Z,10.86
2022-10-01T20:05:56.575Z,10.87
2022-10-01T20:08:36.310Z,10.87
2022-10-01T20:11:14.114Z,10.88
2022-10-01T20:14:12.260Z,10.90
2022-10-01T20:16:49.038Z,10.90
2022-10-01T20:19:42.801Z,10.88
2022-10-01T20:22:40.420Z,10.85
2022-10-01T20:26:07.024Z,10.84
2022-10-01T20:29:20.326Z,10.85
2022-10-01T20:32:15.694Z,10.85
2022-10-01T20:35:21.694Z,10.84
2022-10-01T20:38:13.226Z,10.84
2022-10-01T20:40:52.608Z,10.84
2022-10-01T20:43:49.406Z,10.86
2022-10-01T20:46:39.007Z,10.88
2022-10-01T20:49:31.983Z,10.89
2022-10-01T20:52:37.962Z,10.90
2022-10-01T20:55:18.475Z,10.91
2022-10-01T20:58:03.523Z,10.91
2022-10-01T21:00:32.718Z,10.92
2022-10-01T21:03:30.125Z,10.92
2022-10-01T21:06:29.359Z,10.93
2022-10-01T21:09:20.864Z,10.94
2022-10-01T21:12:03.409Z,10.93
2022-10-01T21:14:45.181Z,10.94
2022-10-01T21:17:27.645Z,10.93
2022-10-01T21:20:21.048Z,10.90
2022-10-01T21:23:03.272Z,10.88
2022-10-01T21:26:08.332Z,10.85
2022-10-01T21:29:22.150Z,10.82
2022-10-01T21:32:16.753Z,10.77
2022-10-01T21:34:54.040Z,10.72
2022-10-01T21:37:33.494Z,10.69
2022-10-01T21:40:37.009Z,10.66
2022-10-01T21:43:10.263Z,10.64
2022-10-01T21:46:17.612Z,10.63
2022-10-01T21:48:55.767Z,10.64
2022-10-01T21:51:59.548Z,10.65
2022-10-01T21:55:12.410Z,10.67
2022-10-01T21:58:16.240Z,10.69
2022-10-01T22:01:00.630Z,10.72
2022-10-01T22:03:46.366Z,10.74
2022-10-01T22:06:36.218Z,10.76
2022-10-01T22:09:25.841Z,10.76
2022-10-01T22:11:58.850Z,10.74
2022-10-01T22:14:28.717Z,10.75
2022-10-01T22:17:05.816Z,10.75
2022-10-01T22:19:42.903Z,10.76
2022-10-01T22:22:28.969Z,10.78
2022-10-01T22:25:00.208Z,10.80
2022-10-01T22:27:37.786Z,10.82
2022-10-01T22:30:17.742Z,10.83
2022-10-01T22:33:04.728Z,10.84
2022-10-01T22:35:48.906Z,10.86
2022-10-01T22:38:29.121Z,10.89
2022-10-01T22:41:10.324Z,10.93
2022-10-01T22:43:40.494Z,10.96
2022-10-01T22:46:36.639Z,11.00
2022-10-01T22:49:48.453Z,11.05
2022-10-01T22:52:39.353Z,11.13
2022-10-01T22:55:53.401Z,11.19
2022-10-01T22:59:10.510Z,11.24
2022-10-01T23:02:01.715Z,11.27
2022-10-01T23:05:25.826Z,11.31
2022-10-01T23:08:27.469Z,11.33
2022-10-01T23:11:17.048Z,11.35
2022-10-01T23:14:26.006Z,11.37
2022-10-01T23:17:18.101Z,11.39
2022-10-01T23:20:32.927Z,11.40
2022-10-01T23:23:35.365Z,11.41
2022-10-01T23:26:36.293Z,11.43
2022-10-01T23:29:48.293Z,11.45
2022-10-01T23:33:05.338Z,11.47
2022-10-01T23:36:22.849Z,11.51
2022-10-01T23:39:36.958Z,11.55
2022-10-01T23:42:35.820Z,11.61
2022-10-01T23:45:23.964Z,11.65
2022-10-01T23:48:15.743Z,11.68
2022-10-01T23:51:17.429Z,11.71
2022-10-01T23:54:11.391Z,11.75
2022-10-01T23:56:54.956Z,11.80
2022-10-01T23:59:47.607Z,11.84
